Beaconsfield, Canada
Current Conditions -  °F | °C
As of 4:05 AM on Monday 20 Oct 2014 (Local Time) from CYUL Reporting Station
Broken Clouds Broken Clouds  
Wind Chill: 32°   Ceiling: 22000
Heat Index: 36°   Visibility: 15mi
Dew Point: 25°   Wind: 5mph
Humidity: 65%   Direction: 280°W
Pressure: 29.98"   Gusts: NA
Location:  45.43°N, 73.83°W
Report Text: CYUL 200805Z 28004KT 15SM SCT040 BKN220 02/M04 A2998 RMK SC4CI1 SLP154
Loading
Personal Weather Stations






























Interactive Weather Map
Tropical Storm Tracking
New forecast layout! Learn more

10-Day Weather Forecast

Advertisements
Track Severe Weather on mobile